sensor_id;sensor_type;location;lat;lon;timestamp;P1;durP1;ratioP1;P2;durP2;ratioP2
67130;SDS011;54051;53.464;49.532;2022-11-21T00:01:57;22.98;;;10.23;;
67130;SDS011;54051;53.464;49.532;2022-11-21T00:04:24;24.00;;;9.90;;
67130;SDS011;54051;53.464;49.532;2022-11-21T00:06:50;23.75;;;10.20;;
67130;SDS011;54051;53.464;49.532;2022-11-21T00:09:17;22.25;;;9.73;;
67130;SDS011;54051;53.464;49.532;2022-11-21T00:11:43;21.65;;;9.80;;
67130;SDS011;54051;53.464;49.532;2022-11-21T00:14:09;22.38;;;9.68;;
67130;SDS011;54051;53.464;49.532;2022-11-21T00:16:34;23.95;;;10.32;;
67130;SDS011;54051;53.464;49.532;2022-11-21T00:19:00;22.13;;;9.50;;
67130;SDS011;54051;53.464;49.532;2022-11-21T00:21:26;22.27;;;9.68;;
67130;SDS011;54051;53.464;49.532;2022-11-21T00:23:52;23.48;;;10.02;;
67130;SDS011;54051;53.464;49.532;2022-11-21T00:26:18;22.02;;;9.85;;
67130;SDS011;54051;53.464;49.532;2022-11-21T00:28:44;21.38;;;10.00;;
67130;SDS011;54051;53.464;49.532;2022-11-21T00:31:18;21.60;;;9.88;;
67130;SDS011;54051;53.464;49.532;2022-11-21T00:33:45;23.55;;;10.32;;
67130;SDS011;54051;53.464;49.532;2022-11-21T00:36:11;22.60;;;9.38;;
67130;SDS011;54051;53.464;49.532;2022-11-21T00:38:37;20.67;;;9.65;;
67130;SDS011;54051;53.464;49.532;2022-11-21T00:41:04;20.63;;;9.23;;
67130;SDS011;54051;53.464;49.532;2022-11-21T00:43:31;21.30;;;9.93;;
67130;SDS011;54051;53.464;49.532;2022-11-21T00:45:57;22.02;;;9.63;;
67130;SDS011;54051;53.464;49.532;2022-11-21T00:48:25;20.08;;;9.60;;
67130;SDS011;54051;53.464;49.532;2022-11-21T00:50:51;22.77;;;9.88;;
67130;SDS011;54051;53.464;49.532;2022-11-21T00:53:17;23.48;;;9.40;;
67130;SDS011;54051;53.464;49.532;2022-11-21T00:55:43;22.35;;;10.43;;
67130;SDS011;54051;53.464;49.532;2022-11-21T00:58:09;22.42;;;9.38;;
67130;SDS011;54051;53.464;49.532;2022-11-21T01:00:35;22.95;;;9.80;;
67130;SDS011;54051;53.464;49.532;2022-11-21T01:03:01;23.95;;;9.63;;
67130;SDS011;54051;53.464;49.532;2022-11-21T01:05:27;23.20;;;10.45;;
67130;SDS011;54051;53.464;49.532;2022-11-21T01:07:53;24.35;;;10.13;;
67130;SDS011;54051;53.464;49.532;2022-11-21T01:10:19;23.63;;;10.30;;
67130;SDS011;54051;53.464;49.532;2022-11-21T01:12:45;20.25;;;8.77;;
67130;SDS011;54051;53.464;49.532;2022-11-21T01:15:11;19.95;;;9.13;;
67130;SDS011;54051;53.464;49.532;2022-11-21T01:17:37;21.35;;;9.25;;
67130;SDS011;54051;53.464;49.532;2022-11-21T01:20:03;21.58;;;9.60;;
67130;SDS011;54051;53.464;49.532;2022-11-21T01:22:29;20.47;;;9.03;;
67130;SDS011;54051;53.464;49.532;2022-11-21T01:24:55;23.88;;;10.23;;
67130;SDS011;54051;53.464;49.532;2022-11-21T01:27:21;25.25;;;11.07;;
67130;SDS011;54051;53.464;49.532;2022-11-21T01:29:47;22.77;;;10.23;;
67130;SDS011;54051;53.464;49.532;2022-11-21T01:32:13;24.20;;;10.07;;
67130;SDS011;54051;53.464;49.532;2022-11-21T01:34:39;22.20;;;9.93;;
67130;SDS011;54051;53.464;49.532;2022-11-21T01:37:07;25.63;;;11.02;;
67130;SDS011;54051;53.464;49.532;2022-11-21T01:39:33;33.53;;;12.93;;
67130;SDS011;54051;53.464;49.532;2022-11-21T01:41:59;27.27;;;11.00;;
67130;SDS011;54051;53.464;49.532;2022-11-21T01:44:26;26.75;;;10.73;;
67130;SDS011;54051;53.464;49.532;2022-11-21T01:47:11;24.77;;;11.25;;
67130;SDS011;54051;53.464;49.532;2022-11-21T01:49:37;24.08;;;10.27;;
67130;SDS011;54051;53.464;49.532;2022-11-21T01:52:22;24.02;;;10.35;;
67130;SDS011;54051;53.464;49.532;2022-11-21T01:54:57;21.25;;;9.77;;
67130;SDS011;54051;53.464;49.532;2022-11-21T01:57:27;24.77;;;10.48;;
67130;SDS011;54051;53.464;49.532;2022-11-21T02:00:02;24.90;;;10.73;;
67130;SDS011;54051;53.464;49.532;2022-11-21T02:02:30;23.85;;;10.52;;
67130;SDS011;54051;53.464;49.532;2022-11-21T02:05:01;24.65;;;10.48;;
67130;SDS011;54051;53.464;49.532;2022-11-21T02:07:32;22.50;;;10.05;;
67130;SDS011;54051;53.464;49.532;2022-11-21T02:10:00;22.83;;;10.32;;
67130;SDS011;54051;53.464;49.532;2022-11-21T02:12:29;22.10;;;10.05;;
67130;SDS011;54051;53.464;49.532;2022-11-21T02:15:00;20.65;;;10.02;;
67130;SDS011;54051;53.464;49.532;2022-11-21T02:17:28;24.02;;;9.80;;
67130;SDS011;54051;53.464;49.532;2022-11-21T02:25:36;21.10;;;10.10;;
67130;SDS011;54051;53.464;49.532;2022-11-21T02:28:07;20.83;;;9.95;;
67130;SDS011;54051;53.464;49.532;2022-11-21T02:30:36;22.67;;;10.07;;
67130;SDS011;54051;53.464;49.532;2022-11-21T02:33:04;23.77;;;10.35;;
67130;SDS011;54051;53.464;49.532;2022-11-21T02:35:31;24.48;;;11.27;;
67130;SDS011;54051;53.464;49.532;2022-11-21T02:37:59;24.33;;;11.05;;
67130;SDS011;54051;53.464;49.532;2022-11-21T02:40:30;23.77;;;10.90;;
67130;SDS011;54051;53.464;49.532;2022-11-21T02:45:42;23.10;;;10.75;;
67130;SDS011;54051;53.464;49.532;2022-11-21T02:48:10;23.98;;;10.00;;
67130;SDS011;54051;53.464;49.532;2022-11-21T02:50:40;25.15;;;10.48;;
67130;SDS011;54051;53.464;49.532;2022-11-21T02:53:08;24.40;;;11.02;;
67130;SDS011;54051;53.464;49.532;2022-11-21T02:55:37;21.83;;;9.88;;
67130;SDS011;54051;53.464;49.532;2022-11-21T02:58:05;23.98;;;10.23;;
67130;SDS011;54051;53.464;49.532;2022-11-21T03:00:35;24.67;;;10.38;;
67130;SDS011;54051;53.464;49.532;2022-11-21T03:03:04;25.60;;;11.88;;
67130;SDS011;54051;53.464;49.532;2022-11-21T03:05:30;24.75;;;10.65;;
67130;SDS011;54051;53.464;49.532;2022-11-21T03:07:56;23.42;;;10.90;;
67130;SDS011;54051;53.464;49.532;2022-11-21T03:10:22;22.70;;;10.60;;
67130;SDS011;54051;53.464;49.532;2022-11-21T03:12:48;24.42;;;10.68;;
67130;SDS011;54051;53.464;49.532;2022-11-21T03:15:14;23.08;;;10.77;;
67130;SDS011;54051;53.464;49.532;2022-11-21T03:17:41;22.73;;;10.60;;
67130;SDS011;54051;53.464;49.532;2022-11-21T03:20:08;19.60;;;9.77;;
67130;SDS011;54051;53.464;49.532;2022-11-21T03:22:35;23.88;;;11.18;;
67130;SDS011;54051;53.464;49.532;2022-11-21T03:25:01;22.80;;;10.63;;
67130;SDS011;54051;53.464;49.532;2022-11-21T03:27:27;24.75;;;10.93;;
67130;SDS011;54051;53.464;49.532;2022-11-21T03:29:53;23.33;;;10.70;;
67130;SDS011;54051;53.464;49.532;2022-11-21T03:32:18;22.33;;;10.48;;
67130;SDS011;54051;53.464;49.532;2022-11-21T03:34:44;22.90;;;10.57;;
67130;SDS011;54051;53.464;49.532;2022-11-21T03:37:10;21.63;;;10.82;;
67130;SDS011;54051;53.464;49.532;2022-11-21T03:39:36;24.05;;;10.82;;
67130;SDS011;54051;53.464;49.532;2022-11-21T03:42:02;21.77;;;11.15;;
67130;SDS011;54051;53.464;49.532;2022-11-21T03:44:28;24.25;;;11.63;;
67130;SDS011;54051;53.464;49.532;2022-11-21T03:46:55;22.05;;;10.77;;
67130;SDS011;54051;53.464;49.532;2022-11-21T03:49:21;27.17;;;11.40;;
67130;SDS011;54051;53.464;49.532;2022-11-21T03:51:47;22.98;;;11.52;;
67130;SDS011;54051;53.464;49.532;2022-11-21T03:54:13;25.48;;;11.35;;
67130;SDS011;54051;53.464;49.532;2022-11-21T03:56:39;24.55;;;11.02;;
67130;SDS011;54051;53.464;49.532;2022-11-21T03:59:05;23.13;;;10.90;;
67130;SDS011;54051;53.464;49.532;2022-11-21T04:01:31;23.60;;;10.60;;
67130;SDS011;54051;53.464;49.532;2022-11-21T04:03:57;23.67;;;10.60;;
67130;SDS011;54051;53.464;49.532;2022-11-21T04:06:23;23.98;;;10.57;;
67130;SDS011;54051;53.464;49.532;2022-11-21T04:08:50;24.42;;;11.50;;
67130;SDS011;54051;53.464;49.532;2022-11-21T04:11:17;24.30;;;10.15;;
67130;SDS011;54051;53.464;49.532;2022-11-21T04:13:43;25.90;;;11.02;;
67130;SDS011;54051;53.464;49.532;2022-11-21T04:16:09;24.92;;;11.23;;
67130;SDS011;54051;53.464;49.532;2022-11-21T04:18:35;25.02;;;10.27;;
67130;SDS011;54051;53.464;49.532;2022-11-21T04:21:03;24.35;;;10.18;;
67130;SDS011;54051;53.464;49.532;2022-11-21T04:23:30;23.15;;;10.82;;
67130;SDS011;54051;53.464;49.532;2022-11-21T04:25:56;25.60;;;10.48;;
67130;SDS011;54051;53.464;49.532;2022-11-21T04:28:22;22.52;;;10.02;;
67130;SDS011;54051;53.464;49.532;2022-11-21T04:30:48;25.05;;;10.20;;
67130;SDS011;54051;53.464;49.532;2022-11-21T04:33:15;20.70;;;9.60;;
67130;SDS011;54051;53.464;49.532;2022-11-21T04:38:08;21.57;;;9.63;;
67130;SDS011;54051;53.464;49.532;2022-11-21T04:40:35;23.17;;;10.50;;
67130;SDS011;54051;53.464;49.532;2022-11-21T04:43:01;23.27;;;10.77;;
67130;SDS011;54051;53.464;49.532;2022-11-21T04:45:27;25.20;;;10.63;;
67130;SDS011;54051;53.464;49.532;2022-11-21T04:47:53;22.60;;;10.73;;
67130;SDS011;54051;53.464;49.532;2022-11-21T04:50:19;22.80;;;10.32;;
67130;SDS011;54051;53.464;49.532;2022-11-21T04:55:20;23.00;;;9.48;;
67130;SDS011;54051;53.464;49.532;2022-11-21T04:57:47;23.55;;;10.88;;
67130;SDS011;54051;53.464;49.532;2022-11-21T05:00:14;22.63;;;10.13;;
67130;SDS011;54051;53.464;49.532;2022-11-21T05:05:07;21.08;;;9.93;;
67130;SDS011;54051;53.464;49.532;2022-11-21T05:07:33;19.48;;;9.18;;
67130;SDS011;54051;53.464;49.532;2022-11-21T05:09:59;21.38;;;9.32;;
67130;SDS011;54051;53.464;49.532;2022-11-21T05:12:25;20.35;;;8.95;;
67130;SDS011;54051;53.464;49.532;2022-11-21T05:15:10;20.00;;;9.50;;
67130;SDS011;54051;53.464;49.532;2022-11-21T05:17:36;21.88;;;10.00;;
67130;SDS011;54051;53.464;49.532;2022-11-21T05:20:02;21.50;;;9.68;;
67130;SDS011;54051;53.464;49.532;2022-11-21T05:22:28;20.50;;;9.43;;
67130;SDS011;54051;53.464;49.532;2022-11-21T05:24:54;23.63;;;10.82;;
67130;SDS011;54051;53.464;49.532;2022-11-21T05:27:20;20.75;;;9.40;;
67130;SDS011;54051;53.464;49.532;2022-11-21T05:29:46;22.33;;;9.93;;
67130;SDS011;54051;53.464;49.532;2022-11-21T05:32:12;20.23;;;9.55;;
67130;SDS011;54051;53.464;49.532;2022-11-21T05:34:38;20.40;;;9.73;;
67130;SDS011;54051;53.464;49.532;2022-11-21T05:37:04;16.83;;;8.77;;
67130;SDS011;54051;53.464;49.532;2022-11-21T05:39:30;21.10;;;9.07;;
67130;SDS011;54051;53.464;49.532;2022-11-21T05:41:56;17.58;;;8.10;;
67130;SDS011;54051;53.464;49.532;2022-11-21T05:44:22;20.55;;;8.55;;
67130;SDS011;54051;53.464;49.532;2022-11-21T05:46:48;18.98;;;9.30;;
67130;SDS011;54051;53.464;49.532;2022-11-21T05:49:14;19.35;;;9.30;;
67130;SDS011;54051;53.464;49.532;2022-11-21T05:51:40;19.90;;;8.32;;
67130;SDS011;54051;53.464;49.532;2022-11-21T05:54:06;19.73;;;10.20;;
67130;SDS011;54051;53.464;49.532;2022-11-21T05:56:32;19.40;;;9.40;;
67130;SDS011;54051;53.464;49.532;2022-11-21T05:58:58;17.95;;;8.88;;
67130;SDS011;54051;53.464;49.532;2022-11-21T06:01:24;16.58;;;8.05;;
67130;SDS011;54051;53.464;49.532;2022-11-21T06:04:09;17.85;;;8.55;;
67130;SDS011;54051;53.464;49.532;2022-11-21T06:06:35;18.92;;;8.65;;
67130;SDS011;54051;53.464;49.532;2022-11-21T06:09:01;19.48;;;9.02;;
67130;SDS011;54051;53.464;49.532;2022-11-21T06:11:28;20.05;;;9.15;;
67130;SDS011;54051;53.464;49.532;2022-11-21T06:13:54;19.85;;;10.23;;
67130;SDS011;54051;53.464;49.532;2022-11-21T06:16:20;20.02;;;9.30;;
67130;SDS011;54051;53.464;49.532;2022-11-21T06:18:47;18.70;;;9.63;;
67130;SDS011;54051;53.464;49.532;2022-11-21T06:21:20;21.30;;;10.18;;
67130;SDS011;54051;53.464;49.532;2022-11-21T06:23:52;20.20;;;9.13;;
67130;SDS011;54051;53.464;49.532;2022-11-21T06:26:20;19.30;;;9.60;;
67130;SDS011;54051;53.464;49.532;2022-11-21T06:28:48;19.30;;;9.23;;
67130;SDS011;54051;53.464;49.532;2022-11-21T06:31:18;18.67;;;9.27;;
67130;SDS011;54051;53.464;49.532;2022-11-21T06:33:55;20.17;;;9.23;;
67130;SDS011;54051;53.464;49.532;2022-11-21T06:36:22;20.13;;;9.43;;
67130;SDS011;54051;53.464;49.532;2022-11-21T06:38:49;21.23;;;9.93;;
67130;SDS011;54051;53.464;49.532;2022-11-21T06:41:18;20.55;;;9.07;;
67130;SDS011;54051;53.464;49.532;2022-11-21T06:43:45;18.27;;;9.15;;
67130;SDS011;54051;53.464;49.532;2022-11-21T06:46:11;20.73;;;9.30;;
67130;SDS011;54051;53.464;49.532;2022-11-21T06:48:39;18.80;;;9.40;;
67130;SDS011;54051;53.464;49.532;2022-11-21T06:51:07;21.98;;;9.73;;
67130;SDS011;54051;53.464;49.532;2022-11-21T06:53:37;20.25;;;8.93;;
67130;SDS011;54051;53.464;49.532;2022-11-21T06:56:03;21.88;;;9.55;;
67130;SDS011;54051;53.464;49.532;2022-11-21T06:58:30;17.27;;;7.93;;
67130;SDS011;54051;53.464;49.532;2022-11-21T07:00:56;20.55;;;9.38;;
67130;SDS011;54051;53.464;49.532;2022-11-21T07:03:22;18.83;;;8.90;;
67130;SDS011;54051;53.464;49.532;2022-11-21T07:05:49;19.33;;;8.75;;
67130;SDS011;54051;53.464;49.532;2022-11-21T07:08:16;17.55;;;8.35;;
67130;SDS011;54051;53.464;49.532;2022-11-21T07:10:42;19.90;;;8.25;;
67130;SDS011;54051;53.464;49.532;2022-11-21T07:13:09;19.33;;;8.80;;
67130;SDS011;54051;53.464;49.532;2022-11-21T07:15:48;18.73;;;8.43;;
67130;SDS011;54051;53.464;49.532;2022-11-21T07:18:19;16.85;;;8.05;;
67130;SDS011;54051;53.464;49.532;2022-11-21T07:21:06;16.95;;;8.23;;
67130;SDS011;54051;53.464;49.532;2022-11-21T07:23:33;19.33;;;8.88;;
67130;SDS011;54051;53.464;49.532;2022-11-21T07:26:00;20.02;;;8.50;;
67130;SDS011;54051;53.464;49.532;2022-11-21T07:28:27;17.73;;;8.07;;
67130;SDS011;54051;53.464;49.532;2022-11-21T07:30:57;19.85;;;8.57;;
67130;SDS011;54051;53.464;49.532;2022-11-21T07:33:25;17.58;;;8.00;;
67130;SDS011;54051;53.464;49.532;2022-11-21T07:35:51;20.00;;;8.30;;
67130;SDS011;54051;53.464;49.532;2022-11-21T07:38:19;17.27;;;7.80;;
67130;SDS011;54051;53.464;49.532;2022-11-21T07:40:45;16.70;;;8.20;;
67130;SDS011;54051;53.464;49.532;2022-11-21T07:43:11;18.45;;;8.27;;
67130;SDS011;54051;53.464;49.532;2022-11-21T07:45:37;18.60;;;8.57;;
67130;SDS011;54051;53.464;49.532;2022-11-21T07:48:04;19.80;;;9.07;;
67130;SDS011;54051;53.464;49.532;2022-11-21T07:50:31;18.23;;;8.88;;
67130;SDS011;54051;53.464;49.532;2022-11-21T07:52:58;20.33;;;8.67;;
67130;SDS011;54051;53.464;49.532;2022-11-21T07:55:32;18.42;;;8.38;;
67130;SDS011;54051;53.464;49.532;2022-11-21T07:57:59;20.45;;;9.77;;
67130;SDS011;54051;53.464;49.532;2022-11-21T08:00:26;20.00;;;9.45;;
67130;SDS011;54051;53.464;49.532;2022-11-21T08:02:53;19.83;;;9.43;;
67130;SDS011;54051;53.464;49.532;2022-11-21T08:05:19;21.85;;;9.73;;
67130;SDS011;54051;53.464;49.532;2022-11-21T08:07:45;19.83;;;9.25;;
67130;SDS011;54051;53.464;49.532;2022-11-21T08:10:11;19.63;;;9.52;;
67130;SDS011;54051;53.464;49.532;2022-11-21T08:12:37;22.95;;;10.10;;
67130;SDS011;54051;53.464;49.532;2022-11-21T08:15:04;24.42;;;11.65;;
67130;SDS011;54051;53.464;49.532;2022-11-21T08:17:31;22.98;;;10.85;;
67130;SDS011;54051;53.464;49.532;2022-11-21T08:19:57;23.30;;;10.52;;
67130;SDS011;54051;53.464;49.532;2022-11-21T08:22:24;22.73;;;10.13;;
67130;SDS011;54051;53.464;49.532;2022-11-21T08:24:51;22.58;;;9.80;;
67130;SDS011;54051;53.464;49.532;2022-11-21T08:27:20;20.80;;;9.73;;
67130;SDS011;54051;53.464;49.532;2022-11-21T08:29:47;19.77;;;9.73;;
67130;SDS011;54051;53.464;49.532;2022-11-21T08:32:13;23.88;;;10.30;;
67130;SDS011;54051;53.464;49.532;2022-11-21T08:34:39;21.63;;;9.77;;
67130;SDS011;54051;53.464;49.532;2022-11-21T08:37:05;21.88;;;10.07;;
67130;SDS011;54051;53.464;49.532;2022-11-21T08:39:31;19.50;;;9.50;;
67130;SDS011;54051;53.464;49.532;2022-11-21T08:41:58;23.25;;;9.55;;
67130;SDS011;54051;53.464;49.532;2022-11-21T08:44:33;21.55;;;10.00;;
67130;SDS011;54051;53.464;49.532;2022-11-21T08:46:59;22.80;;;10.50;;
67130;SDS011;54051;53.464;49.532;2022-11-21T08:49:26;23.83;;;10.50;;
67130;SDS011;54051;53.464;49.532;2022-11-21T08:51:53;23.08;;;10.02;;
67130;SDS011;54051;53.464;49.532;2022-11-21T08:54:20;21.25;;;9.52;;
67130;SDS011;54051;53.464;49.532;2022-11-21T08:56:47;18.63;;;9.23;;
67130;SDS011;54051;53.464;49.532;2022-11-21T08:59:14;23.40;;;9.67;;
67130;SDS011;54051;53.464;49.532;2022-11-21T09:01:41;23.17;;;9.52;;
67130;SDS011;54051;53.464;49.532;2022-11-21T09:04:07;26.92;;;10.23;;
67130;SDS011;54051;53.464;49.532;2022-11-21T09:06:33;20.95;;;9.82;;
67130;SDS011;54051;53.464;49.532;2022-11-21T09:08:59;20.10;;;9.00;;
67130;SDS011;54051;53.464;49.532;2022-11-21T09:11:26;21.90;;;9.30;;
67130;SDS011;54051;53.464;49.532;2022-11-21T09:13:52;21.50;;;9.25;;
67130;SDS011;54051;53.464;49.532;2022-11-21T09:16:37;21.23;;;8.98;;
67130;SDS011;54051;53.464;49.532;2022-11-21T09:19:22;21.05;;;9.15;;
67130;SDS011;54051;53.464;49.532;2022-11-21T09:21:48;21.05;;;9.13;;
67130;SDS011;54051;53.464;49.532;2022-11-21T09:24:15;22.75;;;9.65;;
67130;SDS011;54051;53.464;49.532;2022-11-21T09:26:41;20.80;;;9.80;;
67130;SDS011;54051;53.464;49.532;2022-11-21T09:29:07;21.30;;;9.70;;
67130;SDS011;54051;53.464;49.532;2022-11-21T09:31:36;23.63;;;10.32;;
67130;SDS011;54051;53.464;49.532;2022-11-21T09:34:02;25.52;;;11.10;;
67130;SDS011;54051;53.464;49.532;2022-11-21T09:36:28;23.48;;;10.52;;
67130;SDS011;54051;53.464;49.532;2022-11-21T09:38:54;22.95;;;9.85;;
67130;SDS011;54051;53.464;49.532;2022-11-21T09:41:25;21.48;;;10.45;;
67130;SDS011;54051;53.464;49.532;2022-11-21T09:47:26;25.00;;;10.20;;
67130;SDS011;54051;53.464;49.532;2022-11-21T09:50:04;22.65;;;9.90;;
67130;SDS011;54051;53.464;49.532;2022-11-21T09:52:40;19.92;;;9.02;;
67130;SDS011;54051;53.464;49.532;2022-11-21T09:55:12;22.13;;;10.02;;
67130;SDS011;54051;53.464;49.532;2022-11-21T09:58:01;19.70;;;9.30;;
67130;SDS011;54051;53.464;49.532;2022-11-21T10:00:29;19.50;;;9.45;;
67130;SDS011;54051;53.464;49.532;2022-11-21T10:02:55;21.70;;;9.93;;
67130;SDS011;54051;53.464;49.532;2022-11-21T10:05:25;23.73;;;10.55;;
67130;SDS011;54051;53.464;49.532;2022-11-21T10:08:00;22.30;;;10.27;;
67130;SDS011;54051;53.464;49.532;2022-11-21T10:13:43;19.70;;;9.50;;
67130;SDS011;54051;53.464;49.532;2022-11-21T10:21:40;21.67;;;9.45;;
67130;SDS011;54051;53.464;49.532;2022-11-21T10:27:14;20.23;;;9.23;;
67130;SDS011;54051;53.464;49.532;2022-11-21T10:29:54;21.10;;;9.18;;
67130;SDS011;54051;53.464;49.532;2022-11-21T10:35:24;18.88;;;8.73;;
67130;SDS011;54051;53.464;49.532;2022-11-21T10:38:00;19.85;;;8.82;;
67130;SDS011;54051;53.464;49.532;2022-11-21T10:43:23;20.25;;;8.32;;
67130;SDS011;54051;53.464;49.532;2022-11-21T10:46:17;18.83;;;8.32;;
67130;SDS011;54051;53.464;49.532;2022-11-21T10:48:46;21.73;;;8.90;;
67130;SDS011;54051;53.464;49.532;2022-11-21T10:51:41;22.10;;;9.70;;
67130;SDS011;54051;53.464;49.532;2022-11-21T10:54:15;21.75;;;10.15;;
67130;SDS011;54051;53.464;49.532;2022-11-21T11:02:26;19.17;;;9.32;;
67130;SDS011;54051;53.464;49.532;2022-11-21T11:10:40;21.85;;;9.60;;
67130;SDS011;54051;53.464;49.532;2022-11-21T11:13:25;22.77;;;9.48;;
67130;SDS011;54051;53.464;49.532;2022-11-21T11:18:39;22.60;;;9.70;;
67130;SDS011;54051;53.464;49.532;2022-11-21T11:21:21;21.95;;;9.32;;
67130;SDS011;54051;53.464;49.532;2022-11-21T11:23:49;20.30;;;9.50;;
67130;SDS011;54051;53.464;49.532;2022-11-21T11:26:22;21.25;;;9.23;;
67130;SDS011;54051;53.464;49.532;2022-11-21T11:28:50;21.65;;;9.45;;
67130;SDS011;54051;53.464;49.532;2022-11-21T11:31:17;18.40;;;8.68;;
67130;SDS011;54051;53.464;49.532;2022-11-21T11:42:19;20.38;;;9.30;;
67130;SDS011;54051;53.464;49.532;2022-11-21T11:48:14;19.85;;;9.38;;
67130;SDS011;54051;53.464;49.532;2022-11-21T11:56:25;20.75;;;9.63;;
67130;SDS011;54051;53.464;49.532;2022-11-21T11:58:56;21.00;;;9.65;;
67130;SDS011;54051;53.464;49.532;2022-11-21T12:12:37;20.85;;;10.00;;
67130;SDS011;54051;53.464;49.532;2022-11-21T12:18:15;22.92;;;10.60;;
67130;SDS011;54051;53.464;49.532;2022-11-21T12:23:29;19.35;;;9.70;;
67130;SDS011;54051;53.464;49.532;2022-11-21T12:39:55;23.13;;;10.27;;
67130;SDS011;54051;53.464;49.532;2022-11-21T12:42:33;21.42;;;9.32;;
67130;SDS011;54051;53.464;49.532;2022-11-21T13:04:44;19.35;;;8.88;;
67130;SDS011;54051;53.464;49.532;2022-11-21T13:07:13;18.50;;;8.13;;
67130;SDS011;54051;53.464;49.532;2022-11-21T13:09:41;18.95;;;8.52;;
67130;SDS011;54051;53.464;49.532;2022-11-21T13:12:22;19.38;;;8.77;;
67130;SDS011;54051;53.464;49.532;2022-11-21T13:15:25;16.45;;;7.85;;
67130;SDS011;54051;53.464;49.532;2022-11-21T13:18:03;16.40;;;7.60;;
67130;SDS011;54051;53.464;49.532;2022-11-21T13:20:57;16.30;;;8.13;;
67130;SDS011;54051;53.464;49.532;2022-11-21T13:23:39;14.65;;;7.28;;
67130;SDS011;54051;53.464;49.532;2022-11-21T13:28:51;17.38;;;8.38;;
67130;SDS011;54051;53.464;49.532;2022-11-21T13:31:35;16.25;;;7.90;;
67130;SDS011;54051;53.464;49.532;2022-11-21T13:34:02;17.05;;;7.72;;
67130;SDS011;54051;53.464;49.532;2022-11-21T13:44:28;14.80;;;7.68;;
67130;SDS011;54051;53.464;49.532;2022-11-21T13:47:01;15.75;;;7.20;;
67130;SDS011;54051;53.464;49.532;2022-11-21T13:52:54;13.00;;;7.05;;
67130;SDS011;54051;53.464;49.532;2022-11-21T14:03:54;18.77;;;8.90;;
67130;SDS011;54051;53.464;49.532;2022-11-21T14:06:34;18.15;;;8.75;;
67130;SDS011;54051;53.464;49.532;2022-11-21T14:09:15;18.13;;;8.50;;
67130;SDS011;54051;53.464;49.532;2022-11-21T14:25:45;18.85;;;9.23;;
67130;SDS011;54051;53.464;49.532;2022-11-21T14:28:13;19.25;;;9.07;;
67130;SDS011;54051;53.464;49.532;2022-11-21T14:31:03;20.73;;;9.75;;
67130;SDS011;54051;53.464;49.532;2022-11-21T14:35:59;19.75;;;9.60;;
67130;SDS011;54051;53.464;49.532;2022-11-21T14:38:40;20.33;;;9.30;;
67130;SDS011;54051;53.464;49.532;2022-11-21T14:43:46;17.67;;;8.90;;
67130;SDS011;54051;53.464;49.532;2022-11-21T14:46:15;19.33;;;8.57;;
67130;SDS011;54051;53.464;49.532;2022-11-21T14:48:45;16.58;;;8.07;;
67130;SDS011;54051;53.464;49.532;2022-11-21T14:51:13;16.98;;;8.48;;
67130;SDS011;54051;53.464;49.532;2022-11-21T14:53:42;16.52;;;8.48;;
67130;SDS011;54051;53.464;49.532;2022-11-21T14:56:18;18.58;;;8.60;;
67130;SDS011;54051;53.464;49.532;2022-11-21T14:58:49;17.73;;;8.13;;
67130;SDS011;54051;53.464;49.532;2022-11-21T15:01:21;20.88;;;10.15;;
67130;SDS011;54051;53.464;49.532;2022-11-21T15:03:58;19.35;;;9.48;;
67130;SDS011;54051;53.464;49.532;2022-11-21T15:06:29;18.88;;;8.73;;
67130;SDS011;54051;53.464;49.532;2022-11-21T15:08:58;19.63;;;10.20;;
67130;SDS011;54051;53.464;49.532;2022-11-21T15:11:31;22.77;;;10.05;;
67130;SDS011;54051;53.464;49.532;2022-11-21T15:16:55;19.33;;;9.10;;
67130;SDS011;54051;53.464;49.532;2022-11-21T15:19:26;21.17;;;9.30;;
67130;SDS011;54051;53.464;49.532;2022-11-21T15:21:54;19.15;;;8.82;;
67130;SDS011;54051;53.464;49.532;2022-11-21T15:24:38;20.40;;;9.07;;
67130;SDS011;54051;53.464;49.532;2022-11-21T15:27:23;23.60;;;10.20;;
67130;SDS011;54051;53.464;49.532;2022-11-21T15:43:40;23.55;;;9.98;;
67130;SDS011;54051;53.464;49.532;2022-11-21T15:48:37;22.40;;;10.35;;
67130;SDS011;54051;53.464;49.532;2022-11-21T15:51:03;21.77;;;10.15;;
67130;SDS011;54051;53.464;49.532;2022-11-21T15:53:29;21.05;;;10.05;;
67130;SDS011;54051;53.464;49.532;2022-11-21T15:55:55;20.85;;;8.70;;
67130;SDS011;54051;53.464;49.532;2022-11-21T15:58:21;20.88;;;9.30;;
67130;SDS011;54051;53.464;49.532;2022-11-21T16:00:48;24.35;;;9.93;;
67130;SDS011;54051;53.464;49.532;2022-11-21T16:03:14;23.15;;;9.82;;
67130;SDS011;54051;53.464;49.532;2022-11-21T16:05:40;23.85;;;10.60;;
67130;SDS011;54051;53.464;49.532;2022-11-21T16:08:06;20.67;;;9.60;;
67130;SDS011;54051;53.464;49.532;2022-11-21T16:10:32;19.55;;;9.52;;
67130;SDS011;54051;53.464;49.532;2022-11-21T16:12:58;21.02;;;9.73;;
67130;SDS011;54051;53.464;49.532;2022-11-21T16:15:24;22.48;;;10.25;;
67130;SDS011;54051;53.464;49.532;2022-11-21T16:17:50;21.52;;;9.88;;
67130;SDS011;54051;53.464;49.532;2022-11-21T16:20:16;20.63;;;9.98;;
67130;SDS011;54051;53.464;49.532;2022-11-21T16:22:42;21.90;;;10.40;;
67130;SDS011;54051;53.464;49.532;2022-11-21T16:25:09;22.05;;;9.95;;
67130;SDS011;54051;53.464;49.532;2022-11-21T16:27:35;22.80;;;9.88;;
67130;SDS011;54051;53.464;49.532;2022-11-21T16:30:01;21.73;;;9.25;;
67130;SDS011;54051;53.464;49.532;2022-11-21T16:32:27;22.85;;;10.45;;
67130;SDS011;54051;53.464;49.532;2022-11-21T16:34:53;20.67;;;9.57;;
67130;SDS011;54051;53.464;49.532;2022-11-21T16:37:19;22.83;;;10.15;;
67130;SDS011;54051;53.464;49.532;2022-11-21T16:39:45;23.88;;;10.23;;
67130;SDS011;54051;53.464;49.532;2022-11-21T16:42:16;22.92;;;10.55;;
67130;SDS011;54051;53.464;49.532;2022-11-21T16:44:43;21.65;;;10.20;;
67130;SDS011;54051;53.464;49.532;2022-11-21T16:47:10;23.77;;;11.05;;
67130;SDS011;54051;53.464;49.532;2022-11-21T16:49:37;23.52;;;10.68;;
67130;SDS011;54051;53.464;49.532;2022-11-21T16:52:11;26.33;;;11.55;;
67130;SDS011;54051;53.464;49.532;2022-11-21T16:54:38;25.92;;;10.73;;
67130;SDS011;54051;53.464;49.532;2022-11-21T16:57:04;23.63;;;11.30;;
67130;SDS011;54051;53.464;49.532;2022-11-21T16:59:31;23.13;;;10.55;;
67130;SDS011;54051;53.464;49.532;2022-11-21T17:01:57;23.33;;;11.13;;
67130;SDS011;54051;53.464;49.532;2022-11-21T17:04:23;26.08;;;11.10;;
67130;SDS011;54051;53.464;49.532;2022-11-21T17:06:49;27.40;;;11.45;;
67130;SDS011;54051;53.464;49.532;2022-11-21T17:09:15;26.98;;;12.07;;
67130;SDS011;54051;53.464;49.532;2022-11-21T17:11:41;23.80;;;11.30;;
67130;SDS011;54051;53.464;49.532;2022-11-21T17:14:08;25.55;;;10.90;;
67130;SDS011;54051;53.464;49.532;2022-11-21T17:16:35;26.25;;;11.18;;
67130;SDS011;54051;53.464;49.532;2022-11-21T17:19:02;27.58;;;11.43;;
67130;SDS011;54051;53.464;49.532;2022-11-21T17:21:29;26.63;;;10.75;;
67130;SDS011;54051;53.464;49.532;2022-11-21T17:23:56;24.63;;;10.52;;
67130;SDS011;54051;53.464;49.532;2022-11-21T17:26:23;22.00;;;10.20;;